createdAt,value
2018-06-03T00:00:41.932Z,18.81
2018-06-03T00:01:41.872Z,18.76
2018-06-03T00:02:41.814Z,18.68
2018-06-03T00:03:41.755Z,18.67
2018-06-03T00:04:41.692Z,18.71
2018-06-03T00:05:41.635Z,18.67
2018-06-03T00:06:41.580Z,18.75
2018-06-03T00:07:41.516Z,18.70
2018-06-03T00:08:41.457Z,18.74
2018-06-03T00:09:41.447Z,18.61
2018-06-03T00:10:41.335Z,18.68
2018-06-03T00:11:41.280Z,18.71
2018-06-03T00:12:41.219Z,18.66
2018-06-03T00:13:41.160Z,18.68
2018-06-03T00:14:41.098Z,18.64
2018-06-03T00:15:41.041Z,18.64
2018-06-03T00:16:40.979Z,18.51
2018-06-03T00:17:40.921Z,18.54
2018-06-03T00:18:40.929Z,18.56
2018-06-03T00:19:40.804Z,18.56
2018-06-03T00:20:40.762Z,18.52
2018-06-03T00:21:40.681Z,18.48
2018-06-03T00:22:40.622Z,18.45
2018-06-03T00:23:40.564Z,18.42
2018-06-03T00:24:40.505Z,18.48
2018-06-03T00:25:40.446Z,18.41
2018-06-03T00:26:40.383Z,18.46
2018-06-03T00:27:40.330Z,18.41
2018-06-03T00:28:40.263Z,18.43
2018-06-03T00:29:40.205Z,18.43
2018-06-03T00:30:40.146Z,18.46
2018-06-03T00:31:40.090Z,18.51
2018-06-03T00:32:40.023Z,18.56
2018-06-03T00:33:39.965Z,18.39
2018-06-03T00:34:39.907Z,18.46
2018-06-03T00:35:39.848Z,18.41
2018-06-03T00:36:39.789Z,18.34
2018-06-03T00:37:39.727Z,18.51
2018-06-03T00:38:39.669Z,18.41
2018-06-03T00:39:39.610Z,18.30
2018-06-03T00:40:39.549Z,18.26
2018-06-03T00:41:39.488Z,18.30
2018-06-03T00:42:39.430Z,18.30
2018-06-03T00:43:39.369Z,18.38
2018-06-03T00:44:39.311Z,18.27
2018-06-03T00:45:39.254Z,18.26
2018-06-03T00:46:39.190Z,18.24
2018-06-03T00:47:39.130Z,18.17
2018-06-03T00:48:39.071Z,18.15
2018-06-03T00:49:39.011Z,18.13
2018-06-03T00:50:38.956Z,18.05
2018-06-03T00:51:38.893Z,18.01
2018-06-03T00:52:38.831Z,17.93
2018-06-03T00:53:38.772Z,18.05
2018-06-03T00:54:38.715Z,18.01
2018-06-03T00:55:38.654Z,17.94
2018-06-03T00:56:38.594Z,17.94
2018-06-03T00:57:38.533Z,17.91
2018-06-03T00:58:38.476Z,17.86
2018-06-03T00:59:38.413Z,17.84
2018-06-03T01:00:38.353Z,17.87
2018-06-03T01:01:38.296Z,17.79
2018-06-03T01:02:38.235Z,17.78
2018-06-03T01:03:38.175Z,17.75
2018-06-03T01:04:38.113Z,17.73
2018-06-03T01:05:38.049Z,17.75
2018-06-03T01:06:37.994Z,17.78
2018-06-03T01:07:37.938Z,17.66
2018-06-03T01:08:37.873Z,17.57
2018-06-03T01:09:37.814Z,17.59
2018-06-03T01:10:37.753Z,17.54
2018-06-03T01:11:37.695Z,17.46
2018-06-03T01:12:37.633Z,17.49
2018-06-03T01:13:37.575Z,17.47
2018-06-03T01:14:37.513Z,17.43
2018-06-03T01:15:37.455Z,17.49
2018-06-03T01:16:37.393Z,17.50
2018-06-03T01:17:37.332Z,17.45
2018-06-03T01:18:37.276Z,17.56
2018-06-03T01:19:37.214Z,17.39
2018-06-03T01:20:37.153Z,17.47
2018-06-03T01:21:37.094Z,17.41
2018-06-03T01:22:37.033Z,17.41
2018-06-03T01:23:36.973Z,17.45
2018-06-03T01:24:36.912Z,17.43
2018-06-03T01:25:36.852Z,17.43
2018-06-03T01:26:36.794Z,17.43
2018-06-03T01:27:36.733Z,17.47
2018-06-03T01:28:36.672Z,17.45
2018-06-03T01:29:36.617Z,17.37
2018-06-03T01:30:36.552Z,17.30
2018-06-03T01:31:36.493Z,17.25
2018-06-03T01:32:36.433Z,17.24
2018-06-03T01:33:36.372Z,17.16
2018-06-03T01:34:36.312Z,17.24
2018-06-03T01:35:36.251Z,17.19
2018-06-03T01:36:36.190Z,17.24
2018-06-03T01:37:36.136Z,17.27
2018-06-03T01:38:36.072Z,17.20
2018-06-03T01:39:36.013Z,17.20
2018-06-03T01:40:35.951Z,17.14
2018-06-03T01:41:35.890Z,17.10
2018-06-03T01:42:35.837Z,17.16
2018-06-03T01:43:35.771Z,17.16
2018-06-03T01:44:35.709Z,17.06
2018-06-03T01:45:35.650Z,17.12
2018-06-03T01:46:35.589Z,17.09
2018-06-03T01:47:35.528Z,17.14
2018-06-03T01:48:35.472Z,17.10
2018-06-03T01:49:35.406Z,17.13
2018-06-03T01:50:35.348Z,17.14
2018-06-03T01:51:35.288Z,17.12
2018-06-03T01:52:35.235Z,16.99
2018-06-03T01:53:35.165Z,17.01
2018-06-03T01:54:35.107Z,17.06
2018-06-03T01:55:35.046Z,17.01
2018-06-03T01:56:34.984Z,16.98
2018-06-03T01:57:34.925Z,16.95
2018-06-03T01:58:34.865Z,16.87
2018-06-03T01:59:34.805Z,16.87
2018-06-03T02:00:34.745Z,16.83
2018-06-03T02:01:34.684Z,16.73
2018-06-03T02:02:34.624Z,16.79
2018-06-03T02:03:34.564Z,16.72
2018-06-03T02:04:34.505Z,16.69
2018-06-03T02:05:34.441Z,16.72
2018-06-03T02:06:34.381Z,16.70
2018-06-03T02:07:34.321Z,16.76
2018-06-03T02:08:34.260Z,16.83
2018-06-03T02:09:34.200Z,16.77
2018-06-03T02:10:34.143Z,16.73
2018-06-03T02:11:34.080Z,16.72
2018-06-03T02:12:34.019Z,16.74
2018-06-03T02:13:33.959Z,16.77
2018-06-03T02:14:33.905Z,16.73
2018-06-03T02:15:33.837Z,16.70
2018-06-03T02:16:33.772Z,16.67
2018-06-03T02:17:33.715Z,16.72
2018-06-03T02:18:33.655Z,16.65
2018-06-03T02:19:33.597Z,16.69
2018-06-03T02:20:33.534Z,16.62
2018-06-03T02:21:33.472Z,16.52
2018-06-03T02:22:33.412Z,16.55
2018-06-03T02:23:33.351Z,16.55
2018-06-03T02:24:33.294Z,16.55
2018-06-03T02:25:33.232Z,16.47
2018-06-03T02:26:33.169Z,16.47
2018-06-03T02:27:33.109Z,16.58
2018-06-03T02:28:33.048Z,16.58
2018-06-03T02:29:32.986Z,16.51
2018-06-03T02:30:32.927Z,16.52
2018-06-03T02:31:32.867Z,16.43
2018-06-03T02:32:32.805Z,16.47
2018-06-03T02:33:32.745Z,16.52
2018-06-03T02:34:32.684Z,16.61
2018-06-03T02:35:32.625Z,16.69
2018-06-03T02:36:32.563Z,16.64
2018-06-03T02:37:32.502Z,16.62
2018-06-03T02:38:32.440Z,16.57
2018-06-03T02:39:32.381Z,16.47
2018-06-03T02:40:32.320Z,16.51
2018-06-03T02:41:32.260Z,16.54
2018-06-03T02:42:32.198Z,16.47
2018-06-03T02:43:32.144Z,16.51
2018-06-03T02:44:32.080Z,16.51
2018-06-03T02:45:32.016Z,16.51
2018-06-03T02:46:31.956Z,16.44
2018-06-03T02:47:31.895Z,16.44
2018-06-03T02:48:31.839Z,16.43
2018-06-03T02:49:31.772Z,16.46
2018-06-03T02:50:31.713Z,16.40
2018-06-03T02:51:31.652Z,16.43
2018-06-03T02:52:31.598Z,16.43
2018-06-03T02:53:31.529Z,16.40
2018-06-03T02:54:31.469Z,16.39
2018-06-03T02:55:31.409Z,16.39
2018-06-03T02:56:31.350Z,16.36
2018-06-03T02:57:31.286Z,16.37
2018-06-03T02:58:31.227Z,16.34
2018-06-03T02:59:31.165Z,16.34
2018-06-03T03:00:31.103Z,16.32
2018-06-03T03:01:31.052Z,16.26
2018-06-03T03:02:30.988Z,16.22
2018-06-03T03:03:30.922Z,16.17
2018-06-03T03:04:30.860Z,16.28
2018-06-03T03:05:30.801Z,16.26
2018-06-03T03:06:30.740Z,16.18
2018-06-03T03:07:30.679Z,16.13
2018-06-03T03:08:30.616Z,16.16
2018-06-03T03:09:30.557Z,16.10
2018-06-03T03:10:30.497Z,16.09
2018-06-03T03:11:30.436Z,16.03
2018-06-03T03:12:30.372Z,16.03
2018-06-03T03:13:30.318Z,16.09
2018-06-03T03:14:30.253Z,16.10
2018-06-03T03:15:30.192Z,16.13
2018-06-03T03:16:30.139Z,16.14
2018-06-03T03:17:30.068Z,16.08
2018-06-03T03:18:30.009Z,16.05
2018-06-03T03:19:29.947Z,16.05
2018-06-03T03:20:29.886Z,16.00
2018-06-03T03:21:29.823Z,16.03
2018-06-03T03:22:29.766Z,16.00
2018-06-03T03:23:29.705Z,15.96
2018-06-03T03:24:29.646Z,15.88
2018-06-03T03:25:29.581Z,16.00
2018-06-03T03:26:29.520Z,15.99
2018-06-03T03:27:29.460Z,15.98
2018-06-03T03:28:29.398Z,16.00
2018-06-03T03:29:29.338Z,15.95
2018-06-03T03:30:29.276Z,16.05
2018-06-03T03:31:29.215Z,16.06
2018-06-03T03:32:29.155Z,16.03
2018-06-03T03:33:29.093Z,16.05
2018-06-03T03:34:29.036Z,15.96
2018-06-03T03:35:28.974Z,15.93
2018-06-03T03:36:28.910Z,15.93
2018-06-03T03:37:28.851Z,16.00
2018-06-03T03:38:28.789Z,16.03
2018-06-03T03:39:28.729Z,16.00
2018-06-03T03:40:28.666Z,15.98
2018-06-03T03:41:28.605Z,16.02
2018-06-03T03:42:28.547Z,15.95
2018-06-03T03:43:28.486Z,15.88
2018-06-03T03:44:28.421Z,15.88
2018-06-03T03:45:28.361Z,15.93
2018-06-03T03:46:28.300Z,15.96
2018-06-03T03:47:28.239Z,15.81
2018-06-03T03:48:28.179Z,15.93
2018-06-03T03:49:28.122Z,15.93
2018-06-03T03:50:28.065Z,16.05
2018-06-03T03:51:27.993Z,16.03
2018-06-03T03:52:27.933Z,16.03
2018-06-03T03:53:27.874Z,16.03
2018-06-03T03:54:27.812Z,16.05
2018-06-03T03:55:27.756Z,15.99
2018-06-03T03:56:27.689Z,16.09
2018-06-03T03:57:27.631Z,15.93
2018-06-03T03:58:27.571Z,16.06
2018-06-03T03:59:27.508Z,16.03
2018-06-03T04:00:27.458Z,16.03
2018-06-03T04:01:27.384Z,16.03
2018-06-03T04:02:27.323Z,15.98
2018-06-03T04:03:27.264Z,15.93
2018-06-03T04:04:27.203Z,16.03
2018-06-03T04:05:27.139Z,16.00
2018-06-03T04:06:27.079Z,16.09
2018-06-03T04:07:27.019Z,16.03
2018-06-03T04:08:26.956Z,16.08
2018-06-03T04:09:26.898Z,16.05
2018-06-03T04:10:26.836Z,16.14
2018-06-03T04:11:26.774Z,16.13
2018-06-03T04:12:26.713Z,16.17
2018-06-03T04:13:26.651Z,16.18
2018-06-03T04:14:26.590Z,16.22
2018-06-03T04:15:26.533Z,16.17
2018-06-03T04:16:26.468Z,16.22
2018-06-03T04:17:26.406Z,16.32
2018-06-03T04:18:26.347Z,16.28
2018-06-03T04:19:26.286Z,16.36
2018-06-03T04:20:26.223Z,16.37
2018-06-03T04:21:26.161Z,16.42
2018-06-03T04:22:26.107Z,16.51
2018-06-03T04:23:26.044Z,16.51
2018-06-03T04:24:25.981Z,16.49
2018-06-03T04:25:25.919Z,16.57
2018-06-03T04:26:25.859Z,16.51
2018-06-03T04:27:25.797Z,16.62
2018-06-03T04:28:25.736Z,16.72
2018-06-03T04:29:25.674Z,16.69
2018-06-03T04:30:25.616Z,16.70
2018-06-03T04:31:25.555Z,16.72
2018-06-03T04:32:25.492Z,16.74
2018-06-03T04:33:25.432Z,16.76
2018-06-03T04:34:25.373Z,16.80
2018-06-03T04:35:25.314Z,16.83
2018-06-03T04:36:25.249Z,16.98
2018-06-03T04:37:25.188Z,16.94
2018-06-03T04:38:25.129Z,16.99
2018-06-03T04:39:25.066Z,17.07
2018-06-03T04:40:25.006Z,17.14
2018-06-03T04:41:25.003Z,17.07
2018-06-03T04:42:24.883Z,17.16
2018-06-03T04:43:24.823Z,17.22
2018-06-03T04:44:24.762Z,17.22
2018-06-03T04:45:24.703Z,17.19
2018-06-03T04:46:24.641Z,17.24
2018-06-03T04:47:24.580Z,17.25
2018-06-03T04:48:24.518Z,17.27
2018-06-03T04:49:24.458Z,17.37
2018-06-03T04:50:24.396Z,17.45
2018-06-03T04:51:24.337Z,17.41
2018-06-03T04:52:24.276Z,17.45
2018-06-03T04:53:24.215Z,17.46
2018-06-03T04:54:24.155Z,17.52
2018-06-03T04:55:24.096Z,17.57
2018-06-03T04:56:24.035Z,17.65
2018-06-03T04:57:23.973Z,17.54
2018-06-03T04:58:23.915Z,17.56
2018-06-03T04:59:23.854Z,17.73
2018-06-03T05:00:23.792Z,17.72
2018-06-03T05:01:23.732Z,17.79
2018-06-03T05:02:23.671Z,17.86
2018-06-03T05:03:23.611Z,17.83
2018-06-03T05:04:23.551Z,17.87
2018-06-03T05:05:23.489Z,17.86
2018-06-03T05:06:23.433Z,17.93
2018-06-03T05:07:23.371Z,17.94
2018-06-03T05:08:23.307Z,17.90
2018-06-03T05:09:23.250Z,18.01
2018-06-03T05:10:23.193Z,18.02
2018-06-03T05:11:23.129Z,18.13
2018-06-03T05:12:23.068Z,18.06
2018-06-03T05:13:23.009Z,18.23
2018-06-03T05:14:22.947Z,18.21
2018-06-03T05:15:22.895Z,18.17
2018-06-03T05:16:22.827Z,18.26
2018-06-03T05:17:22.768Z,18.27
2018-06-03T05:18:22.707Z,18.24
2018-06-03T05:19:22.647Z,18.24
2018-06-03T05:20:22.586Z,18.24
2018-06-03T05:21:22.526Z,18.30
2018-06-03T05:22:22.466Z,18.36
2018-06-03T05:23:22.413Z,18.27
2018-06-03T05:24:22.346Z,18.31
2018-06-03T05:25:22.286Z,18.33
2018-06-03T05:26:22.227Z,18.36
2018-06-03T05:27:22.166Z,18.45
2018-06-03T05:28:22.106Z,18.49
2018-06-03T05:29:22.052Z,18.57
2018-06-03T05:30:21.986Z,18.58
2018-06-03T05:31:21.928Z,18.54
2018-06-03T05:32:21.866Z,18.63
2018-06-03T05:33:21.807Z,18.67
2018-06-03T05:34:21.746Z,18.58
2018-06-03T05:35:21.687Z,18.70
2018-06-03T05:36:21.627Z,18.68
2018-06-03T05:37:21.568Z,18.70
2018-06-03T05:38:21.509Z,18.79
2018-06-03T05:39:21.448Z,18.79
2018-06-03T05:40:21.387Z,18.83
2018-06-03T05:41:21.328Z,18.85
2018-06-03T05:42:21.270Z,18.83
2018-06-03T05:43:21.211Z,18.91
2018-06-03T05:44:21.151Z,18.86
2018-06-03T05:45:21.090Z,18.86
2018-06-03T05:46:21.031Z,18.88
2018-06-03T05:47:20.970Z,18.97
2018-06-03T05:48:20.911Z,18.98
2018-06-03T05:49:20.851Z,19.08
2018-06-03T05:50:20.793Z,19.07
2018-06-03T05:51:20.734Z,19.15
2018-06-03T05:52:20.671Z,19.22
2018-06-03T05:53:20.612Z,19.19
2018-06-03T05:54:20.556Z,19.20
2018-06-03T05:55:20.494Z,19.31
2018-06-03T05:56:20.434Z,19.37
2018-06-03T05:57:20.374Z,19.42
2018-06-03T05:58:20.315Z,19.41
2018-06-03T05:59:20.257Z,19.44
2018-06-03T06:00:20.196Z,19.47
2018-06-03T06:01:20.138Z,19.56
2018-06-03T06:02:20.080Z,19.57
2018-06-03T06:03:20.021Z,19.67
2018-06-03T06:04:19.964Z,19.64
2018-06-03T06:05:19.906Z,19.67
2018-06-03T06:06:19.843Z,19.67
2018-06-03T06:07:19.785Z,19.74
2018-06-03T06:08:19.725Z,19.71
2018-06-03T06:09:19.664Z,19.74
2018-06-03T06:10:19.606Z,19.89
2018-06-03T06:11:19.547Z,19.84
2018-06-03T06:12:19.488Z,19.87
2018-06-03T06:13:19.430Z,19.99
2018-06-03T06:14:19.369Z,20.02
2018-06-03T06:15:19.310Z,20.09
2018-06-03T06:16:19.251Z,20.09
2018-06-03T06:17:19.193Z,20.04
2018-06-03T06:18:19.132Z,20.17
2018-06-03T06:19:19.074Z,20.18
2018-06-03T06:20:19.015Z,20.32
2018-06-03T06:21:18.956Z,20.34
2018-06-03T06:22:18.898Z,20.36
2018-06-03T06:23:18.840Z,20.36
2018-06-03T06:24:18.779Z,20.39
2018-06-03T06:25:18.722Z,20.53
2018-06-03T06:26:18.662Z,20.58
2018-06-03T06:27:18.605Z,20.63
2018-06-03T06:28:18.544Z,20.71
2018-06-03T06:29:18.484Z,20.80
2018-06-03T06:30:18.429Z,20.92
2018-06-03T06:31:18.365Z,20.95
2018-06-03T06:32:18.306Z,21.05
2018-06-03T06:33:18.250Z,21.07
2018-06-03T06:34:18.189Z,20.97
2018-06-03T06:35:18.131Z,21.10
2018-06-03T06:36:18.074Z,21.03
2018-06-03T06:37:18.017Z,20.92
2018-06-03T06:38:17.957Z,21.03
2018-06-03T06:39:17.903Z,21.05
2018-06-03T06:40:17.837Z,21.11
2018-06-03T06:41:17.781Z,21.18
2018-06-03T06:42:17.724Z,21.30
2018-06-03T06:43:17.667Z,21.43
2018-06-03T06:44:17.610Z,21.43
2018-06-03T06:45:17.552Z,21.58
2018-06-03T06:46:17.489Z,21.58
2018-06-03T06:47:17.433Z,21.62
2018-06-03T06:48:17.374Z,21.48
2018-06-03T06:49:17.317Z,21.40
2018-06-03T06:50:17.256Z,21.41
2018-06-03T06:51:17.199Z,21.38
2018-06-03T06:52:17.140Z,21.43
2018-06-03T06:53:17.083Z,21.55
2018-06-03T06:54:17.037Z,21.53
2018-06-03T06:55:16.968Z,21.47
2018-06-03T06:56:16.908Z,21.58
2018-06-03T06:57:16.899Z,21.60
2018-06-03T06:58:16.795Z,21.58
2018-06-03T06:59:16.735Z,21.63
2018-06-03T07:00:16.707Z,21.78
2018-06-03T07:01:16.621Z,21.75
2018-06-03T07:02:16.560Z,21.74
2018-06-03T07:03:16.503Z,21.81
2018-06-03T07:04:16.447Z,21.88
2018-06-03T07:05:16.386Z,21.94
2018-06-03T07:06:16.334Z,21.96
2018-06-03T07:07:16.272Z,21.98
2018-06-03T07:08:16.247Z,21.96
2018-06-03T07:09:16.155Z,21.94
2018-06-03T07:10:16.099Z,21.96
2018-06-03T07:11:16.041Z,21.94
2018-06-03T07:12:15.982Z,21.91
2018-06-03T07:13:15.956Z,21.90
2018-06-03T07:14:15.866Z,21.93
2018-06-03T07:15:15.808Z,21.96
2018-06-03T07:16:15.752Z,22.07
2018-06-03T07:17:15.693Z,22.28
2018-06-03T07:18:15.637Z,22.34
2018-06-03T07:19:15.579Z,22.34
2018-06-03T07:20:15.520Z,22.36
2018-06-03T07:21:15.463Z,22.30
2018-06-03T07:22:15.405Z,22.43
2018-06-03T07:23:15.367Z,22.44
2018-06-03T07:24:15.289Z,22.53
2018-06-03T07:25:15.232Z,22.71
2018-06-03T07:26:15.176Z,22.76
2018-06-03T07:27:15.119Z,22.81
2018-06-03T07:28:15.060Z,22.89
2018-06-03T07:29:15.000Z,22.85
2018-06-03T07:30:14.944Z,22.89
2018-06-03T07:31:14.891Z,22.86
2018-06-03T07:32:14.828Z,22.83
2018-06-03T07:33:14.771Z,22.85
2018-06-03T07:34:14.713Z,22.95
2018-06-03T07:35:14.656Z,23.01
2018-06-03T07:36:14.596Z,23.11
2018-06-03T07:37:14.542Z,23.22
2018-06-03T07:38:14.489Z,23.18
2018-06-03T07:39:14.427Z,23.22
2018-06-03T07:40:14.369Z,23.41
2018-06-03T07:41:14.314Z,23.36
2018-06-03T07:42:14.254Z,23.48
2018-06-03T07:43:14.201Z,23.59
2018-06-03T07:44:14.139Z,23.66
2018-06-03T07:45:14.083Z,23.74
2018-06-03T07:46:14.028Z,23.89
2018-06-03T07:47:13.969Z,23.92
2018-06-03T07:48:13.912Z,23.89
2018-06-03T07:49:13.855Z,23.97
2018-06-03T07:50:13.797Z,23.98
2018-06-03T07:51:13.739Z,24.01
2018-06-03T07:52:13.684Z,23.98
2018-06-03T07:53:13.626Z,24.01
2018-06-03T07:54:13.570Z,24.01
2018-06-03T07:55:13.513Z,24.11
2018-06-03T07:56:13.471Z,24.34
2018-06-03T07:57:13.397Z,24.52
2018-06-03T07:58:13.341Z,24.60
2018-06-03T07:59:13.280Z,24.60
2018-06-03T08:00:13.222Z,24.53
2018-06-03T08:01:13.165Z,24.58
2018-06-03T08:02:13.109Z,24.53
2018-06-03T08:03:13.054Z,24.52
2018-06-03T08:04:12.995Z,24.60
2018-06-03T08:05:12.940Z,24.55
2018-06-03T08:06:12.881Z,24.70
2018-06-03T08:07:12.824Z,24.75
2018-06-03T08:08:12.768Z,24.74
2018-06-03T08:09:12.712Z,24.65
2018-06-03T08:10:12.656Z,24.65
2018-06-03T08:11:12.599Z,24.53
2018-06-03T08:12:12.543Z,24.47
2018-06-03T08:13:12.484Z,24.43
2018-06-03T08:14:12.429Z,24.37
2018-06-03T08:15:12.373Z,24.40
2018-06-03T08:16:12.315Z,24.31
2018-06-03T08:17:12.259Z,24.31
2018-06-03T08:18:12.206Z,24.34
2018-06-03T08:19:12.147Z,24.44
2018-06-03T08:20:12.092Z,24.62
2018-06-03T08:21:12.035Z,24.70
2018-06-03T08:22:11.978Z,24.82
2018-06-03T08:23:11.922Z,24.79
2018-06-03T08:24:11.869Z,24.62
2018-06-03T08:25:11.807Z,24.65
2018-06-03T08:26:11.751Z,24.79
2018-06-03T08:27:11.696Z,24.79
2018-06-03T08:28:11.638Z,24.86
2018-06-03T08:29:11.582Z,24.93
2018-06-03T08:30:11.527Z,25.21
2018-06-03T08:31:11.471Z,25.38
2018-06-03T08:32:11.412Z,25.49
2018-06-03T08:33:11.357Z,25.41
2018-06-03T08:34:11.300Z,25.38
2018-06-03T08:35:11.243Z,25.37
2018-06-03T08:36:11.189Z,25.40
2018-06-03T08:37:11.130Z,25.38
2018-06-03T08:38:11.075Z,25.38
2018-06-03T08:39:11.031Z,25.56
2018-06-03T08:40:10.962Z,25.70
2018-06-03T08:41:10.905Z,25.56
2018-06-03T08:42:10.851Z,25.52
2018-06-03T08:43:10.793Z,25.49
2018-06-03T08:44:10.737Z,25.41
2018-06-03T08:45:10.682Z,25.41
2018-06-03T08:46:10.624Z,25.56
2018-06-03T08:47:10.568Z,25.98
2018-06-03T08:48:10.516Z,26.21
2018-06-03T08:49:10.459Z,26.34
2018-06-03T08:50:10.401Z,26.49
2018-06-03T08:51:10.346Z,26.51
2018-06-03T08:52:10.332Z,26.65
2018-06-03T08:53:10.234Z,26.80
2018-06-03T08:54:10.179Z,26.78
2018-06-03T08:55:10.123Z,26.79
2018-06-03T08:56:10.068Z,26.76
2018-06-03T08:57:10.011Z,26.97
2018-06-03T08:58:09.955Z,26.93
2018-06-03T08:59:09.905Z,26.85
2018-06-03T09:00:09.845Z,26.63
2018-06-03T09:01:09.788Z,26.65
2018-06-03T09:02:09.736Z,26.63
2018-06-03T09:03:09.678Z,26.49
2018-06-03T09:04:09.622Z,26.27
2018-06-03T09:05:09.564Z,26.41
2018-06-03T09:06:09.511Z,26.52
2018-06-03T09:07:09.457Z,26.46
2018-06-03T09:08:09.399Z,26.46
2018-06-03T09:09:09.348Z,26.53
2018-06-03T09:10:09.292Z,26.58
2018-06-03T09:11:09.233Z,26.33
2018-06-03T09:12:09.178Z,25.93
2018-06-03T09:13:09.164Z,25.64
2018-06-03T09:14:09.069Z,25.49
2018-06-03T09:15:09.014Z,25.40
2018-06-03T09:16:08.958Z,25.41
2018-06-03T09:17:08.905Z,25.61
2018-06-03T09:18:08.847Z,26.61
2018-06-03T09:19:08.798Z,26.41
2018-06-03T09:20:08.737Z,26.89
2018-06-03T09:21:08.683Z,27.76
2018-06-03T09:22:08.627Z,27.01
2018-06-03T09:23:08.577Z,26.64
2018-06-03T09:24:08.517Z,26.42
2018-06-03T09:25:08.503Z,27.32
2018-06-03T09:26:08.410Z,28.40
2018-06-03T09:27:08.356Z,29.15
2018-06-03T09:28:08.299Z,28.64
2018-06-03T09:29:08.246Z,27.63
2018-06-03T09:30:08.193Z,26.95
2018-06-03T09:31:08.139Z,26.49
2018-06-03T09:32:08.084Z,25.98
2018-06-03T09:33:08.030Z,25.89
2018-06-03T09:34:07.978Z,25.82
2018-06-03T09:35:07.923Z,25.86
2018-06-03T09:36:07.868Z,26.76
2018-06-03T09:37:07.815Z,26.64
2018-06-03T09:38:07.762Z,27.54
2018-06-03T09:39:07.706Z,28.27
2018-06-03T09:40:07.652Z,28.90
2018-06-03T09:41:07.600Z,29.36
2018-06-03T09:42:07.556Z,29.58
2018-06-03T09:43:07.491Z,28.74
2018-06-03T09:44:07.440Z,28.06
2018-06-03T09:45:07.387Z,27.75
2018-06-03T09:46:07.333Z,27.50
2018-06-03T09:47:07.283Z,27.22
2018-06-03T09:48:07.282Z,26.94
2018-06-03T09:49:07.174Z,26.80
2018-06-03T09:50:07.119Z,26.53
2018-06-03T09:51:07.067Z,26.34
2018-06-03T09:52:07.017Z,26.08
2018-06-03T09:53:06.976Z,25.98
2018-06-03T09:54:06.909Z,25.81
2018-06-03T09:55:06.854Z,25.83
2018-06-03T09:56:06.801Z,25.83
2018-06-03T09:57:06.747Z,26.03
2018-06-03T09:58:06.693Z,26.95
2018-06-03T09:59:06.641Z,28.05
2018-06-03T10:00:06.586Z,29.13
2018-06-03T10:01:06.534Z,30.03
2018-06-03T10:02:06.481Z,30.45
2018-06-03T10:03:06.427Z,31.10
2018-06-03T10:04:06.373Z,31.32
2018-06-03T10:05:06.318Z,31.39
2018-06-03T10:06:06.265Z,31.57
2018-06-03T10:07:06.213Z,31.67
2018-06-03T10:08:06.161Z,31.63
2018-06-03T10:09:06.108Z,31.33
2018-06-03T10:10:06.056Z,31.60
2018-06-03T10:11:06.005Z,31.60
2018-06-03T10:12:05.956Z,31.70
2018-06-03T10:13:05.901Z,31.57
2018-06-03T10:14:05.850Z,31.52
2018-06-03T10:15:05.799Z,30.96
2018-06-03T10:16:05.761Z,30.21
2018-06-03T10:17:05.700Z,29.73
2018-06-03T10:18:05.648Z,29.17
2018-06-03T10:19:05.602Z,28.77
2018-06-03T10:20:05.547Z,28.69
2018-06-03T10:21:05.496Z,28.96
2018-06-03T10:22:05.450Z,29.34
2018-06-03T10:23:05.396Z,28.91
2018-06-03T10:24:05.345Z,28.50
2018-06-03T10:25:05.297Z,28.30
2018-06-03T10:26:05.246Z,27.94
2018-06-03T10:27:05.212Z,27.68
2018-06-03T10:28:05.142Z,27.37
2018-06-03T10:29:05.094Z,26.98
2018-06-03T10:30:05.042Z,26.78
2018-06-03T10:31:04.991Z,26.75
2018-06-03T10:32:04.936Z,26.83
2018-06-03T10:33:04.887Z,26.65
2018-06-03T10:34:04.836Z,26.63
2018-06-03T10:35:04.784Z,26.76
2018-06-03T10:36:04.731Z,26.58
2018-06-03T10:37:04.680Z,26.67
2018-06-03T10:38:04.625Z,26.56
2018-06-03T10:39:04.572Z,26.43
2018-06-03T10:40:04.522Z,26.75
2018-06-03T10:41:04.471Z,27.69
2018-06-03T10:42:04.416Z,27.64
2018-06-03T10:43:04.363Z,27.35
2018-06-03T10:44:04.310Z,27.16
2018-06-03T10:45:04.260Z,26.95
2018-06-03T10:46:04.207Z,26.75
2018-06-03T10:47:04.153Z,26.65
2018-06-03T10:48:04.100Z,26.52
2018-06-03T10:49:04.048Z,26.23
2018-06-03T10:50:03.996Z,26.05
2018-06-03T10:51:03.944Z,26.01
2018-06-03T10:52:03.886Z,26.00
2018-06-03T10:53:03.840Z,25.85
2018-06-03T10:54:03.779Z,25.83
2018-06-03T10:55:03.726Z,25.82
2018-06-03T10:56:03.672Z,25.78
2018-06-03T10:57:03.619Z,25.73
2018-06-03T10:58:03.564Z,25.71
2018-06-03T10:59:03.513Z,25.68
2018-06-03T11:00:03.460Z,25.59
2018-06-03T11:01:03.402Z,25.43
2018-06-03T11:02:03.350Z,25.51
2018-06-03T11:03:03.295Z,25.41
2018-06-03T11:04:03.301Z,25.37
2018-06-03T11:05:03.189Z,25.38
2018-06-03T11:06:03.134Z,25.41
2018-06-03T11:07:03.080Z,25.27
2018-06-03T11:08:03.024Z,25.28
2018-06-03T11:09:02.969Z,25.30
2018-06-03T11:10:02.917Z,25.27
2018-06-03T11:11:02.862Z,25.23
2018-06-03T11:12:02.805Z,25.18
2018-06-03T11:13:02.750Z,25.40
2018-06-03T11:14:02.695Z,25.48
2018-06-03T11:15:02.643Z,25.56
2018-06-03T11:16:02.585Z,25.68
2018-06-03T11:17:02.532Z,25.74
2018-06-03T11:18:02.479Z,25.77
2018-06-03T11:19:02.421Z,25.90
2018-06-03T11:20:02.368Z,25.93
2018-06-03T11:21:02.310Z,26.11
2018-06-03T11:22:02.259Z,26.12
2018-06-03T11:23:02.202Z,26.21
2018-06-03T11:24:02.147Z,26.27
2018-06-03T11:25:02.093Z,26.36
2018-06-03T11:26:02.039Z,26.43
2018-06-03T11:27:01.983Z,26.58
2018-06-03T11:28:01.926Z,26.65
2018-06-03T11:29:01.871Z,26.65
2018-06-03T11:30:01.810Z,26.57
2018-06-03T11:31:01.763Z,26.52
2018-06-03T11:32:01.704Z,26.46
2018-06-03T11:33:01.649Z,26.34
2018-06-03T11:34:01.597Z,26.33
2018-06-03T11:35:01.540Z,26.42
2018-06-03T11:36:01.488Z,26.16
2018-06-03T11:37:01.440Z,26.19
2018-06-03T11:38:01.374Z,26.21
2018-06-03T11:39:01.324Z,26.20
2018-06-03T11:40:01.263Z,26.21
2018-06-03T11:41:01.212Z,26.31
2018-06-03T11:42:01.159Z,26.33
2018-06-03T11:43:01.098Z,26.43
2018-06-03T11:44:01.041Z,26.58
2018-06-03T11:45:00.985Z,26.73
2018-06-03T11:46:00.932Z,26.79
2018-06-03T11:47:00.877Z,26.93
2018-06-03T11:48:00.820Z,26.97
2018-06-03T11:49:00.767Z,27.07
2018-06-03T11:50:00.711Z,27.05
2018-06-03T11:51:00.654Z,27.10
2018-06-03T11:52:00.600Z,27.04
2018-06-03T11:53:00.544Z,27.05
2018-06-03T11:54:00.490Z,27.04
2018-06-03T11:55:00.456Z,26.90
2018-06-03T11:56:00.380Z,26.89
2018-06-03T11:57:00.325Z,26.95
2018-06-03T11:58:00.271Z,26.98
2018-06-03T11:59:00.217Z,26.93
2018-06-03T12:00:00.160Z,26.95
2018-06-03T12:01:00.137Z,26.93
2018-06-03T12:02:00.050Z,26.98
2018-06-03T12:02:59.997Z,27.12
2018-06-03T12:03:59.937Z,27.20
2018-06-03T12:04:59.885Z,27.23
2018-06-03T12:05:59.830Z,27.27
2018-06-03T12:06:59.774Z,27.31
2018-06-03T12:07:59.719Z,27.44
2018-06-03T12:08:59.671Z,27.45
2018-06-03T12:09:59.608Z,27.58
2018-06-03T12:10:59.554Z,27.45
2018-06-03T12:11:59.498Z,27.49
2018-06-03T12:12:59.445Z,27.41
2018-06-03T12:13:59.388Z,27.34
2018-06-03T12:14:59.334Z,27.35
2018-06-03T12:15:59.279Z,27.38
2018-06-03T12:16:59.223Z,27.34
2018-06-03T12:17:59.168Z,27.37
2018-06-03T12:18:59.118Z,27.41
2018-06-03T12:19:59.058Z,27.54
2018-06-03T12:20:59.004Z,27.63
2018-06-03T12:21:58.949Z,27.63
2018-06-03T12:22:58.895Z,27.68
2018-06-03T12:23:58.839Z,27.66
2018-06-03T12:24:58.784Z,27.73
2018-06-03T12:25:58.728Z,27.72
2018-06-03T12:26:58.674Z,27.80
2018-06-03T12:27:58.619Z,27.73
2018-06-03T12:28:58.564Z,27.82
2018-06-03T12:29:58.508Z,27.82
2018-06-03T12:30:58.454Z,27.78
2018-06-03T12:31:58.400Z,27.79
2018-06-03T12:32:58.346Z,27.87
2018-06-03T12:33:58.291Z,27.85
2018-06-03T12:34:58.238Z,27.87
2018-06-03T12:35:58.234Z,27.85
2018-06-03T12:36:58.129Z,27.82
2018-06-03T12:37:58.076Z,27.68
2018-06-03T12:38:58.018Z,27.68
2018-06-03T12:39:57.963Z,27.52
2018-06-03T12:40:57.913Z,27.61
2018-06-03T12:41:57.854Z,27.53
2018-06-03T12:42:57.802Z,27.40
2018-06-03T12:43:57.744Z,27.23
2018-06-03T12:44:57.688Z,27.01
2018-06-03T12:45:57.636Z,26.85
2018-06-03T12:46:57.581Z,26.75
2018-06-03T12:47:57.525Z,26.70
2018-06-03T12:48:57.472Z,26.63
2018-06-03T12:49:57.416Z,26.60
2018-06-03T12:50:57.363Z,26.63
2018-06-03T12:51:57.310Z,26.57